Time;durP1;ratioP1;P1;durP2;ratioP2;P2;SDS_P1;SDS_P2;PMS_P1;PMS_P2;Temp;Humidity;BMP_temperature;BMP_pressure;BME280_temperature;BME280_humidity;BME280_pressure;Samples;Min_cycle;Max_cycle;Signal;HPM_P1;HPM_P2
2023/11/28 01:05:57;;;;;;;0.90;0.90;;;-10.30;99.90;;;;;;1960974;72;27013;-88
2023/11/28 01:08:46;;;;;;;0.87;0.87;;;-10.30;99.90;;;;;;1928118;73;26094;-88
2023/11/28 01:11:35;;;;;;;0.77;0.77;;;-10.30;99.90;;;;;;1921562;73;25646;-88
2023/11/28 01:14:24;;;;;;;1.13;1.03;;;-10.30;99.90;;;;;;1919366;73;26155;-88
2023/11/28 01:17:13;;;;;;;0.70;0.70;;;-10.30;99.90;;;;;;1919557;73;25698;-87
2023/11/28 01:20:02;;;;;;;1.00;1.00;;;-10.30;99.90;;;;;;1928081;73;25679;-88
2023/11/28 01:22:50;;;;;;;0.77;0.77;;;-10.30;99.90;;;;;;1917287;73;25767;-88
2023/11/28 01:25:40;;;;;;;1.07;0.97;;;-10.30;99.90;;;;;;1918405;73;26077;-87
2023/11/28 01:31:14;;;;;;;0.73;0.60;;;-10.40;99.90;;;;;;1879951;75;27173;-88
2023/11/28 01:34:02;;;;;;;1.30;1.20;;;-10.40;99.90;;;;;;1850411;77;26051;-88
2023/11/28 01:36:51;;;;;;;1.27;0.83;;;-10.40;99.90;;;;;;1870883;76;25731;-88
2023/11/28 01:39:40;;;;;;;1.13;0.87;;;-10.40;99.90;;;;;;1867009;75;25645;-87
2023/11/28 01:42:29;;;;;;;1.20;1.10;;;-10.40;99.90;;;;;;1856679;76;25754;-89
2023/11/28 01:59:02;;;;;;;5.83;1.23;;;-10.40;99.90;;;;;;1978123;71;27100;-87
2023/11/28 02:01:52;;;;;;;0.90;0.80;;;-10.20;99.90;;;;;;1912888;73;25660;-87
2023/11/28 02:04:42;;;;;;;0.80;0.80;;;-10.20;99.90;;;;;;1917816;73;26218;-87
2023/11/28 02:07:34;;;;;;;0.87;0.80;;;-10.10;99.90;;;;;;1945376;73;25603;-89
2023/11/28 02:10:23;;;;;;;2.33;1.20;;;-10.00;99.90;;;;;;1910463;73;25805;-89
2023/11/28 02:13:12;;;;;;;0.90;0.90;;;-10.00;99.90;;;;;;1932278;73;25668;-89
2023/11/28 02:16:10;;;;;;;1.80;1.00;;;-9.90;99.90;;;;;;1917198;73;26260;-89
2023/11/28 02:18:59;;;;;;;2.87;1.17;;;-9.80;99.90;;;;;;1916306;73;26181;-89
2023/11/28 02:21:49;;;;;;;0.43;0.43;;;-9.90;99.90;;;;;;1940430;73;25695;-88
2023/11/28 05:24:48;;;;;;;1.60;1.23;;;-9.80;99.90;;;;;;1954515;72;26804;-88
2023/11/28 05:27:38;;;;;;;1.93;1.13;;;-9.80;99.90;;;;;;1925872;73;25714;-88
2023/11/28 05:30:27;;;;;;;3.47;1.40;;;-9.90;99.90;;;;;;1934804;73;25948;-88
2023/11/28 05:33:16;;;;;;;2.07;1.20;;;-10.00;99.90;;;;;;1913724;74;25617;-88
2023/11/28 05:36:07;;;;;;;1.33;1.20;;;-10.00;99.90;;;;;;1906175;74;25920;-88
2023/11/28 05:38:56;;;;;;;1.13;0.87;;;-10.00;99.90;;;;;;1945503;72;25706;-88
2023/11/28 05:41:45;;;;;;;0.80;0.80;;;-10.00;99.90;;;;;;1950032;72;25612;-88
2023/11/28 05:44:36;;;;;;;2.00;1.20;;;-10.00;99.90;;;;;;1912298;74;26147;-87
2023/11/28 05:52:38;;;;;;;1.63;0.97;;;-10.10;99.90;;;;;;1967250;71;26817;-88
2023/11/28 05:55:29;;;;;;;1.40;1.20;;;-10.10;99.90;;;;;;1988965;70;25894;-89
2023/11/28 05:58:17;;;;;;;1.07;0.97;;;-10.10;99.90;;;;;;2009836;70;26184;-88
2023/11/28 06:01:08;;;;;;;1.17;1.07;;;-10.10;99.90;;;;;;1971607;70;26233;-89
2023/11/28 06:03:56;;;;;;;1.07;0.93;;;-10.00;99.90;;;;;;1991921;70;25819;-89
2023/11/28 06:06:45;;;;;;;1.43;1.10;;;-10.00;99.90;;;;;;2003881;70;25692;-88
2023/11/28 06:09:33;;;;;;;0.77;0.77;;;-10.00;99.90;;;;;;1973382;70;25767;-88
2023/11/28 06:12:22;;;;;;;1.20;0.73;;;-10.00;99.90;;;;;;1983350;70;25721;-88
2023/11/28 06:15:11;;;;;;;1.20;1.10;;;-10.00;99.90;;;;;;1995990;70;25777;-88
2023/11/28 06:18:00;;;;;;;1.13;1.03;;;-9.90;99.90;;;;;;1997660;70;25671;-88
2023/11/28 06:20:48;;;;;;;1.63;1.20;;;-9.90;99.90;;;;;;1970210;70;25618;-88
2023/11/28 06:26:29;;;;;;;0.63;0.63;;;-9.80;99.90;;;;;;1968100;72;26899;-89
2023/11/28 06:33:05;;;;;;;1.13;1.03;;;-9.80;99.90;;;;;;1990081;71;27460;-88
2023/11/28 06:35:53;;;;;;;2.03;1.30;;;-9.70;99.90;;;;;;1962226;72;25968;-87
2023/11/28 06:38:42;;;;;;;1.80;1.03;;;-9.70;99.90;;;;;;2039497;69;25874;-87
2023/11/28 06:44:23;;;;;;;1.03;1.00;;;-9.60;99.90;;;;;;1947673;72;27025;-88
2023/11/28 06:49:56;;;;;;;1.63;1.50;;;-9.50;99.90;;;;;;1894356;74;27696;-88
2023/11/28 06:52:46;;;;;;;2.47;1.27;;;-9.50;99.90;;;;;;1835011;77;25710;-88
2023/11/28 06:55:34;;;;;;;1.50;0.90;;;-9.40;99.90;;;;;;1839361;77;25974;-88
2023/11/28 06:58:23;;;;;;;1.77;1.10;;;-9.40;99.90;;;;;;1841997;77;26000;-88
2023/11/28 07:01:12;;;;;;;2.80;1.23;;;-9.30;99.90;;;;;;1834647;77;25810;-88
2023/11/28 07:06:55;;;;;;;2.63;1.07;;;-9.20;99.90;;;;;;1940647;72;27016;-88
2023/11/28 07:09:47;;;;;;;1.50;1.30;;;-9.20;99.90;;;;;;1930292;73;26437;-87
2023/11/28 07:12:33;;;;;;;1.53;1.00;;;-9.10;99.90;;;;;;1938382;73;26014;-87
2023/11/28 07:15:22;;;;;;;1.97;1.13;;;-9.20;99.90;;;;;;1931372;73;25931;-88
2023/11/28 07:18:15;;;;;;;1.53;1.43;;;-9.10;99.90;;;;;;1923530;73;26021;-88
2023/11/28 07:21:01;;;;;;;1.90;1.17;;;-9.10;99.90;;;;;;1934357;73;25921;-88
2023/11/28 07:23:50;;;;;;;1.40;1.17;;;-9.00;99.90;;;;;;1934258;73;26509;-88
2023/11/28 07:31:34;;;;;;;2.00;1.80;;;-8.90;99.90;;;;;;1915228;74;26363;-88
2023/11/28 07:34:23;;;;;;;1.43;1.00;;;-8.80;99.90;;;;;;1913803;73;25935;-88
2023/11/28 07:37:11;;;;;;;3.00;1.20;;;-8.80;99.90;;;;;;1931756;72;25929;-88
2023/11/28 07:39:59;;;;;;;1.00;0.90;;;-8.90;99.90;;;;;;1942819;73;25964;-88
2023/11/28 07:42:48;;;;;;;0.80;0.80;;;-8.80;99.90;;;;;;1927001;72;26431;-88
2023/11/28 07:45:37;;;;;;;1.57;1.37;;;-8.80;99.90;;;;;;1928133;72;25958;-88
2023/11/28 07:48:26;;;;;;;1.03;0.80;;;-8.70;99.90;;;;;;1897480;75;25918;-88
2023/11/28 07:51:14;;;;;;;1.40;1.20;;;-8.70;99.90;;;;;;1915493;75;25961;-88
2023/11/28 07:54:04;;;;;;;2.20;1.27;;;-8.60;99.90;;;;;;1901191;74;25911;-88
2023/11/28 08:27:20;;;;;;;1.83;1.10;;;-8.40;99.90;;;;;;1948477;72;26714;-88
2023/11/28 08:30:11;;;;;;;1.23;1.13;;;-8.50;99.90;;;;;;1878096;74;25953;-88
2023/11/28 08:33:00;;;;;;;1.17;1.07;;;-8.50;99.90;;;;;;1876569;75;25870;-88
2023/11/28 08:49:25;;;;;;;1.20;0.83;;;-8.60;99.90;;;;;;1950936;72;26998;-88
2023/11/28 08:52:14;;;;;;;2.57;1.43;;;-8.60;99.90;;;;;;1925584;73;25908;-88
2023/11/28 08:55:03;;;;;;;2.17;1.20;;;-8.60;99.90;;;;;;1943511;73;25901;-88
2023/11/28 08:57:52;;;;;;;0.90;0.90;;;-8.60;99.90;;;;;;1938832;72;25842;-88
2023/11/28 09:00:40;;;;;;;2.60;1.63;;;-8.50;99.90;;;;;;1941025;72;25903;-88
2023/11/28 09:03:29;;;;;;;3.23;2.10;;;-8.50;99.90;;;;;;1923094;72;26379;-88
2023/11/28 09:06:18;;;;;;;1.10;0.80;;;-8.50;99.90;;;;;;1924959;73;25927;-88
2023/11/28 09:12:08;;;;;;;3.77;1.20;;;-8.40;99.90;;;;;;1977590;71;27710;-88
2023/11/28 09:14:59;;;;;;;0.60;0.60;;;-8.40;99.90;;;;;;1939312;72;25938;-88
2023/11/28 09:17:48;;;;;;;1.37;1.10;;;-8.40;99.90;;;;;;1935135;71;26433;-87
2023/11/28 09:23:25;;;;;;;3.57;1.53;;;-8.40;99.90;;;;;;1954534;72;26974;-88
2023/11/28 09:26:13;;;;;;;5.20;2.27;;;-8.40;99.90;;;;;;1937018;72;26054;-88
2023/11/28 09:29:03;;;;;;;2.47;1.30;;;-8.20;99.90;;;;;;1934771;73;25974;-89
2023/11/28 09:31:53;;;;;;;1.40;1.30;;;-8.40;99.90;;;;;;1887585;75;26320;-89
2023/11/28 09:34:44;;;;;;;0.80;0.80;;;-8.40;99.90;;;;;;1903557;73;25894;-88
2023/11/28 09:37:35;;;;;;;10.93;4.43;;;-8.30;99.90;;;;;;1926048;72;25956;-89
2023/11/28 09:40:23;;;;;;;13.20;4.57;;;-8.20;99.90;;;;;;1881559;75;26475;-88
2023/11/28 09:43:12;;;;;;;1.83;1.07;;;-8.20;99.90;;;;;;1862249;75;26015;-88
2023/11/28 10:00:48;;;;;;;1.03;1.03;;;-8.10;99.90;;;;;;1975881;71;26366;-89
2023/11/28 10:03:38;;;;;;;1.60;1.17;;;-7.80;99.90;;;;;;1920460;73;25923;-89
2023/11/28 10:06:27;;;;;;;1.30;1.20;;;-7.70;99.90;;;;;;2001524;70;25873;-89
2023/11/28 10:09:16;;;;;;;3.80;1.10;;;-7.70;99.90;;;;;;2010023;70;25792;-89
2023/11/28 10:12:09;;;;;;;2.10;1.33;;;-7.60;99.90;;;;;;2003078;69;25229;-88
2023/11/28 10:25:37;;;;;;;9.47;2.00;;;-7.50;99.90;;;;;;1976067;70;26352;-88
2023/11/28 10:28:26;;;;;;;1.10;1.00;;;-7.40;99.90;;;;;;1926360;72;25287;-88
2023/11/28 10:31:18;;;;;;;1.13;0.90;;;-7.40;99.90;;;;;;1922052;72;25368;-88
2023/11/28 10:34:10;;;;;;;2.13;1.23;;;-7.40;99.90;;;;;;1933563;73;25863;-88
2023/11/28 10:36:59;;;;;;;8.53;2.73;;;-7.30;99.90;;;;;;1919035;74;25982;-88
2023/11/28 10:39:48;;;;;;;3.53;1.00;;;-7.20;99.90;;;;;;1909346;74;25250;-88
2023/11/28 10:42:37;;;;;;;1.40;1.17;;;-7.20;99.90;;;;;;1914537;73;25409;-88
2023/11/28 10:45:26;;;;;;;1.37;1.20;;;-7.30;99.90;;;;;;1899845;73;25389;-88
2023/11/28 10:48:15;;;;;;;2.13;1.20;;;-7.30;99.90;;;;;;1905273;73;26022;-88
2023/11/28 10:51:04;;;;;;;1.33;0.93;;;-7.30;99.90;;;;;;1888513;74;25743;-88
2023/11/28 10:57:02;;;;;;;2.53;0.93;;;-7.30;99.90;;;;;;1953248;72;27004;-88
2023/11/28 10:59:53;;;;;;;3.60;1.73;;;-7.20;99.90;;;;;;1942274;72;25932;-88
2023/11/28 11:02:44;;;;;;;1.20;1.10;;;-7.30;99.90;;;;;;1917648;73;26560;-88
2023/11/28 11:05:32;;;;;;;0.73;0.73;;;-7.40;99.90;;;;;;1924254;72;25920;-88
2023/11/28 11:08:22;;;;;;;1.23;1.13;;;-7.40;99.90;;;;;;1930621;72;25164;-88
2023/11/28 11:11:11;;;;;;;2.17;1.57;;;-7.40;99.90;;;;;;1941502;73;25690;-88
2023/11/28 11:14:03;;;;;;;2.17;1.43;;;-7.50;99.90;;;;;;1928900;72;25851;-88
2023/11/28 11:16:56;;;;;;;1.23;1.10;;;-7.40;99.90;;;;;;1946017;72;25972;-88
2023/11/28 11:19:48;;;;;;;0.67;0.67;;;-7.40;99.90;;;;;;1946857;73;26436;-88
2023/11/28 11:22:39;;;;;;;1.43;1.07;;;-7.40;99.90;;;;;;1937515;72;25865;-88
2023/11/28 11:25:40;;;;;;;1.37;1.03;;;-7.50;99.90;;;;;;1933615;72;26068;-88
2023/11/28 11:28:28;;;;;;;2.33;1.40;;;-7.50;99.90;;;;;;1934527;72;26041;-88
2023/11/28 11:31:17;;;;;;;2.47;1.00;;;-7.50;99.90;;;;;;1931488;73;25939;-88
2023/11/28 11:37:14;;;;;;;1.43;1.27;;;-7.70;99.90;;;;;;1948415;72;27147;-88
2023/11/28 11:42:48;;;;;;;5.33;1.37;;;-7.70;99.90;;;;;;1930051;72;27112;-88
2023/11/28 11:45:38;;;;;;;4.00;1.30;;;-7.70;99.90;;;;;;1884647;75;25982;-88
2023/11/28 11:48:27;;;;;;;1.03;1.03;;;-7.80;99.90;;;;;;1874647;76;26457;-88
2023/11/28 11:51:16;;;;;;;3.87;1.30;;;-7.80;99.90;;;;;;1867778;75;25984;-88
2023/11/28 11:54:09;;;;;;;1.17;1.00;;;-7.70;99.90;;;;;;1880825;75;25989;-89
2023/11/28 11:56:58;;;;;;;0.97;0.73;;;-7.70;99.90;;;;;;1877396;75;25937;-89
2023/11/28 13:03:08;;;;;;;0.93;0.90;;;-7.80;99.90;;;;;;1941776;72;26430;-88
2023/11/28 13:09:18;;;;;;;10.17;2.00;;;-7.80;99.90;;;;;;1986112;71;26378;-88
2023/11/28 13:12:09;;;;;;;1.20;1.10;;;-7.80;99.90;;;;;;1980896;72;25906;-88
2023/11/28 13:31:11;;;;;;;1.50;1.03;;;-7.90;99.90;;;;;;1913606;74;27581;-89
2023/11/28 13:34:01;;;;;;;1.77;1.00;;;-7.90;99.90;;;;;;1882445;75;25981;-88
2023/11/28 13:36:49;;;;;;;2.00;0.80;;;-7.90;99.90;;;;;;1871641;75;25897;-88
2023/11/28 13:43:01;;;;;;;1.00;1.00;;;-7.90;99.90;;;;;;1984088;71;26879;-89
2023/11/28 13:59:01;;;;;;;1.73;1.17;;;-7.90;99.90;;;;;;1990128;71;26805;-88
2023/11/28 14:01:50;;;;;;;2.07;1.30;;;-7.80;99.90;;;;;;1929323;72;25682;-88
2023/11/28 14:04:38;;;;;;;1.73;1.03;;;-7.80;99.90;;;;;;1939612;72;25959;-89
2023/11/28 14:07:27;;;;;;;1.90;1.37;;;-7.80;99.90;;;;;;1964613;72;25876;-88
2023/11/28 14:10:16;;;;;;;1.50;0.83;;;-7.80;99.90;;;;;;1952671;73;25890;-89
2023/11/28 14:13:05;;;;;;;1.87;0.90;;;-7.80;99.90;;;;;;1952447;72;26436;-88
2023/11/28 14:15:54;;;;;;;0.90;0.90;;;-7.70;99.90;;;;;;1950486;72;25989;-88
2023/11/28 14:18:42;;;;;;;2.70;1.73;;;-7.70;99.90;;;;;;1943379;71;26003;-88
2023/11/28 14:21:36;;;;;;;1.93;1.00;;;-7.80;99.90;;;;;;1930136;72;26400;-88
2023/11/28 14:24:23;;;;;;;0.50;0.50;;;-7.70;99.90;;;;;;1942306;71;26011;-88
2023/11/28 14:27:11;;;;;;;1.90;1.20;;;-7.70;99.90;;;;;;1954353;72;25876;-88
2023/11/28 14:30:00;;;;;;;0.87;0.87;;;-7.80;99.90;;;;;;1942783;71;25676;-88
2023/11/28 14:32:49;;;;;;;1.57;1.20;;;-7.80;99.90;;;;;;1954831;72;26403;-88
2023/11/28 14:35:39;;;;;;;2.13;1.20;;;-7.80;99.90;;;;;;1939565;72;25891;-88
2023/11/28 14:38:28;;;;;;;1.10;1.00;;;-7.80;99.90;;;;;;1964836;71;25910;-88
2023/11/28 14:41:17;;;;;;;8.10;1.20;;;-7.80;99.90;;;;;;1940634;72;25826;-88
2023/11/28 14:44:08;;;;;;;1.27;0.90;;;-7.80;99.90;;;;;;1964565;71;25930;-89
2023/11/28 14:46:56;;;;;;;0.70;0.70;;;-7.70;99.90;;;;;;1978101;72;26614;-88
2023/11/28 14:49:45;;;;;;;0.63;0.63;;;-7.70;99.90;;;;;;1962455;72;25280;-88
2023/11/28 14:52:34;;;;;;;1.50;0.87;;;-7.80;99.90;;;;;;1961929;70;26482;-88
2023/11/28 14:55:23;;;;;;;5.43;1.80;;;-7.70;99.90;;;;;;1974673;72;26694;-88
2023/11/28 14:58:12;;;;;;;1.20;1.10;;;-7.70;99.90;;;;;;1969270;69;25927;-89
2023/11/28 15:48:00;;;;;;;6.00;2.37;;;-7.40;99.90;;;;;;1926005;72;27072;-89
2023/11/28 15:50:48;;;;;;;3.00;2.07;;;-7.40;99.90;;;;;;1904716;73;25192;-89
2023/11/28 15:53:38;;;;;;;1.50;1.40;;;-7.40;99.90;;;;;;1917206;73;25194;-89
2023/11/28 15:56:27;;;;;;;2.17;1.80;;;-7.40;99.90;;;;;;1909142;74;25947;-89
2023/11/28 15:59:19;;;;;;;2.80;1.37;;;-7.40;99.90;;;;;;1918978;73;26358;-89
2023/11/28 17:34:23;;;;;;;5.20;2.07;;;-7.30;99.90;;;;;;1993711;71;27366;-87
2023/11/28 17:37:11;;;;;;;4.57;1.87;;;-7.30;99.90;;;;;;2013433;70;25296;-88
2023/11/28 17:40:00;;;;;;;3.30;1.73;;;-7.30;99.90;;;;;;2004807;70;26408;-90
2023/11/28 17:42:49;;;;;;;1.30;0.83;;;-7.20;99.90;;;;;;2010405;69;25275;-88
2023/11/28 18:03:32;;;;;;;4.33;1.70;;;-7.20;99.90;;;;;;1942918;72;27074;-89
2023/11/28 18:06:21;;;;;;;2.97;1.77;;;-7.10;99.90;;;;;;1925111;73;25237;-89
2023/11/28 18:09:09;;;;;;;2.43;1.50;;;-7.20;99.90;;;;;;1925855;72;25207;-89
2023/11/28 18:12:00;;;;;;;3.33;1.63;;;-7.10;99.90;;;;;;1931447;73;25897;-89
2023/11/28 18:14:48;;;;;;;1.97;1.37;;;-7.10;99.90;;;;;;1924948;73;25761;-88
2023/11/28 18:17:37;;;;;;;1.97;1.17;;;-7.10;99.90;;;;;;1923772;73;25718;-88
2023/11/28 18:20:25;;;;;;;5.63;1.80;;;-7.10;99.90;;;;;;1891355;73;25234;-88
2023/11/28 18:23:14;;;;;;;2.27;1.30;;;-7.10;99.90;;;;;;1863953;75;25222;-88
2023/11/28 18:26:04;;;;;;;2.07;1.33;;;-7.10;99.90;;;;;;1891715;75;26464;-88
2023/11/28 18:28:53;;;;;;;2.23;1.67;;;-7.10;99.90;;;;;;1899595;75;25914;-88
2023/11/28 18:34:30;;;;;;;5.50;2.10;;;-7.10;99.90;;;;;;1942642;72;26939;-88
2023/11/28 18:51:17;;;;;;;3.23;2.30;;;-7.00;99.90;;;;;;1945910;72;26801;-88
2023/11/28 18:54:08;;;;;;;4.10;1.83;;;-7.00;99.90;;;;;;1951232;72;25301;-88
2023/11/28 18:56:59;;;;;;;3.67;1.43;;;-6.80;99.90;;;;;;1945720;73;25286;-88
2023/11/28 18:59:46;;;;;;;3.20;1.90;;;-6.90;99.90;;;;;;1919723;73;26340;-88
2023/11/28 19:02:35;;;;;;;2.73;1.70;;;-6.90;99.90;;;;;;1929943;73;25890;-88
2023/11/28 19:05:32;;;;;;;3.00;1.90;;;-6.90;99.90;;;;;;1906631;73;25232;-87
2023/11/28 19:08:20;;;;;;;2.73;1.57;;;-6.80;99.90;;;;;;1889881;74;25276;-87
2023/11/28 19:11:10;;;;;;;4.57;2.10;;;-6.80;99.90;;;;;;1884843;74;25253;-88
2023/11/28 19:14:03;;;;;;;1.97;1.33;;;-6.70;99.90;;;;;;1885179;74;25714;-88
2023/11/28 19:16:48;;;;;;;1.80;1.40;;;-6.70;99.90;;;;;;1885832;75;25254;-88
2023/11/28 19:22:29;;;;;;;2.20;1.57;;;-6.80;99.90;;;;;;1950892;72;26979;-88
2023/11/28 19:39:45;;;;;;;5.03;1.87;;;-6.80;99.90;;;;;;1909414;74;26812;-89
2023/11/28 19:42:34;;;;;;;0.90;0.90;;;-6.80;99.90;;;;;;1881044;75;25187;-89
2023/11/28 19:59:10;;;;;;;3.63;2.33;;;-6.70;99.90;;;;;;1906718;74;26364;-88
2023/11/28 20:04:39;;;;;;;3.87;1.57;;;-6.50;99.90;;;;;;1930802;72;27088;-89
2023/11/28 20:10:47;;;;;;;1.30;1.20;;;-6.50;99.90;;;;;;1959323;71;26387;-88
2023/11/28 20:13:38;;;;;;;1.87;1.10;;;-6.40;99.90;;;;;;1958878;72;25825;-88
2023/11/28 20:19:09;;;;;;;1.07;0.93;;;-6.50;99.90;;;;;;1907269;74;27059;-89
2023/11/28 20:22:00;;;;;;;5.00;1.60;;;-6.40;99.90;;;;;;1859251;76;25335;-88
2023/11/28 20:24:50;;;;;;;3.07;1.77;;;-6.50;99.90;;;;;;1865379;76;25300;-88
2023/11/28 20:27:38;;;;;;;2.87;1.70;;;-6.40;99.90;;;;;;1863089;74;25323;-88
2023/11/28 20:30:29;;;;;;;3.60;1.20;;;-6.40;99.90;;;;;;1863052;76;25280;-87
2023/11/28 20:33:17;;;;;;;2.93;1.70;;;-6.30;99.90;;;;;;1861839;76;25759;-88
2023/11/28 20:36:07;;;;;;;3.37;2.07;;;-6.30;99.90;;;;;;1869988;76;25238;-88
2023/11/28 20:38:56;;;;;;;1.20;1.10;;;-6.30;99.90;;;;;;1860995;76;25264;-88
2023/11/28 20:54:54;;;;;;;2.27;1.47;;;-6.30;99.90;;;;;;1839214;75;27750;-87
2023/11/28 21:00:24;;;;;;;2.67;1.80;;;-6.00;99.90;;;;;;1933544;72;27536;-88
2023/11/28 21:03:14;;;;;;;1.17;0.83;;;-6.10;99.90;;;;;;1854105;75;25253;-88
2023/11/28 21:06:03;;;;;;;3.00;1.60;;;-6.10;99.90;;;;;;1857883;76;25259;-88
2023/11/28 21:08:52;;;;;;;3.43;1.70;;;-6.00;99.90;;;;;;1871333;75;25311;-88
2023/11/28 21:11:52;;;;;;;2.83;1.60;;;-6.00;99.90;;;;;;1845619;76;25715;-88
2023/11/28 21:14:41;;;;;;;2.70;1.83;;;-6.00;99.90;;;;;;1914532;73;25228;-89
2023/11/28 21:17:33;;;;;;;3.03;1.97;;;-6.00;99.90;;;;;;1913421;73;25246;-88
2023/11/28 21:20:22;;;;;;;2.57;1.03;;;-6.00;99.90;;;;;;1903858;74;25392;-88
2023/11/28 21:23:11;;;;;;;3.47;1.73;;;-6.00;99.90;;;;;;1907006;73;26606;-88
2023/11/28 21:26:00;;;;;;;4.77;2.10;;;-5.90;99.90;;;;;;1910379;73;25382;-88
2023/11/28 21:28:49;;;;;;;2.90;1.10;;;-5.90;99.90;;;;;;1910466;73;25289;-89
2023/11/28 21:31:39;;;;;;;1.23;0.93;;;-5.90;99.90;;;;;;1874474;75;25262;-88
2023/11/28 21:34:29;;;;;;;3.37;1.87;;;-5.90;99.90;;;;;;1874460;76;25245;-88
2023/11/28 21:37:18;;;;;;;3.73;2.20;;;-5.80;99.90;;;;;;1897697;74;25781;-89
2023/11/28 21:40:09;;;;;;;4.47;1.60;;;-5.70;99.90;;;;;;1865572;75;25182;-88
2023/11/28 21:42:58;;;;;;;1.87;1.37;;;-5.70;99.90;;;;;;1851851;76;25171;-89
2023/11/28 22:47:58;;;;;;;1.93;1.50;;;-5.10;99.90;;;;;;1941084;72;27451;-89
2023/11/28 22:50:47;;;;;;;2.70;1.67;;;-5.20;99.90;;;;;;1903541;75;25216;-89
2023/11/28 22:53:36;;;;;;;1.53;1.33;;;-5.20;99.90;;;;;;1897178;74;25273;-89
2023/11/28 22:56:25;;;;;;;1.83;1.17;;;-5.20;99.90;;;;;;1879001;75;26418;-88
2023/11/28 23:40:28;;;;;;;1.67;1.37;;;-4.80;99.90;;;;;;1931436;73;25313;-90
2023/11/28 23:50:49;;;;;;;2.70;1.70;;;-4.80;99.90;;;;;;1848959;76;25747;-90
2023/11/28 23:54:18;;;;;;;2.20;1.30;;;-4.70;99.90;;;;;;1854545;76;25271;-89
